Brady, Washington
Current Conditions -  °F | °C
As of 1:00 PM on Thursday 18 Dec 2014 (Local Time) from KSHN Reporting Station
Overcast Overcast  
Wind Chill: 47°   Ceiling: 1900
Heat Index: 47°   Visibility: 10mi
Dew Point: 45°   Wind: 3mph
Humidity: 93%   Direction: 40°NE
Pressure: 29.81"   Gusts: NA
Location:  47.555°N, 123.746°W
Report Text: KSHN 182100Z AUTO 04003KT 10SM SCT009 OVC019 08/07 A2981 RMK AO2 T00830072
Loading
Personal Weather Stations






























Interactive Weather Map New forecast layout! Learn more

10-Day Weather Forecast

Advertisements
Track Severe Weather on mobile